createdAt,value
2018-02-25T00:00:01.869Z,988.13
2018-02-25T00:01:01.815Z,988.16
2018-02-25T00:02:01.992Z,988.12
2018-02-25T00:03:01.796Z,988.12
2018-02-25T00:04:01.776Z,988.15
2018-02-25T00:05:01.812Z,988.11
2018-02-25T00:06:01.753Z,988.12
2018-02-25T00:07:01.742Z,988.09
2018-02-25T00:08:01.730Z,988.11
2018-02-25T00:09:01.715Z,988.11
2018-02-25T00:10:01.748Z,988.13
2018-02-25T00:11:01.692Z,988.14
2018-02-25T00:12:01.682Z,988.15
2018-02-25T00:13:01.669Z,988.17
2018-02-25T00:14:01.656Z,988.16
2018-02-25T00:15:01.686Z,988.18
2018-02-25T00:16:01.630Z,988.17
2018-02-25T00:17:01.621Z,988.16
2018-02-25T00:18:02.416Z,988.17
2018-02-25T00:19:01.594Z,988.17
2018-02-25T00:20:01.642Z,988.16
2018-02-25T00:21:01.571Z,988.17
2018-02-25T00:22:01.596Z,988.16
2018-02-25T00:23:01.554Z,988.17
2018-02-25T00:24:01.540Z,988.16
2018-02-25T00:25:02.146Z,988.18
2018-02-25T00:26:01.512Z,988.21
2018-02-25T00:27:01.496Z,988.16
2018-02-25T00:28:01.485Z,988.19
2018-02-25T00:29:01.473Z,988.20
2018-02-25T00:30:01.515Z,988.20
2018-02-25T00:31:01.446Z,988.20
2018-02-25T00:32:01.476Z,988.24
2018-02-25T00:33:01.420Z,988.29
2018-02-25T00:34:01.409Z,988.26
2018-02-25T00:35:01.393Z,988.27
2018-02-25T00:36:01.584Z,988.27
2018-02-25T00:37:01.389Z,988.29
2018-02-25T00:38:01.358Z,988.31
2018-02-25T00:39:01.348Z,988.30
2018-02-25T00:40:01.331Z,988.31
2018-02-25T00:41:01.365Z,988.31
2018-02-25T00:42:01.306Z,988.31
2018-02-25T00:43:01.293Z,988.35
2018-02-25T00:44:01.280Z,988.33
2018-02-25T00:45:01.269Z,988.31
2018-02-25T00:46:01.312Z,988.32
2018-02-25T00:47:01.287Z,988.35
2018-02-25T00:48:01.229Z,988.39
2018-02-25T00:49:01.219Z,988.42
2018-02-25T00:50:01.202Z,988.38
2018-02-25T00:51:01.190Z,988.36
2018-02-25T00:52:01.235Z,988.40
2018-02-25T00:53:01.168Z,988.41
2018-02-25T00:54:01.150Z,988.37
2018-02-25T00:55:01.141Z,988.42
2018-02-25T00:56:01.128Z,988.42
2018-02-25T00:57:01.159Z,988.41
2018-02-25T00:58:01.141Z,988.46
2018-02-25T00:59:01.084Z,988.42
2018-02-25T01:00:01.074Z,988.43
2018-02-25T01:01:01.062Z,988.36
2018-02-25T01:02:01.045Z,988.42
2018-02-25T01:03:01.076Z,988.39
2018-02-25T01:04:01.019Z,988.39
2018-02-25T01:05:01.008Z,988.40
2018-02-25T01:06:00.998Z,988.39
2018-02-25T01:07:00.981Z,988.42
2018-02-25T01:08:01.017Z,988.42
2018-02-25T01:09:00.958Z,988.42
2018-02-25T01:10:00.942Z,988.45
2018-02-25T01:11:00.929Z,988.47
2018-02-25T01:12:00.919Z,988.47
2018-02-25T01:13:00.958Z,988.46
2018-02-25T01:14:00.894Z,988.44
2018-02-25T01:15:00.877Z,988.44
2018-02-25T01:16:00.890Z,988.38
2018-02-25T01:17:00.894Z,988.41
2018-02-25T01:18:00.840Z,988.43
2018-02-25T01:19:00.870Z,988.39
2018-02-25T01:20:00.810Z,988.39
2018-02-25T01:21:00.799Z,988.36
2018-02-25T01:22:00.783Z,988.36
2018-02-25T01:23:00.771Z,988.37
2018-02-25T01:24:00.804Z,988.34
2018-02-25T01:25:00.747Z,988.29
2018-02-25T01:26:00.735Z,988.34
2018-02-25T01:27:00.719Z,988.27
2018-02-25T01:28:00.707Z,988.31
2018-02-25T01:29:00.753Z,988.26
2018-02-25T01:30:00.678Z,988.29
2018-02-25T01:31:00.752Z,988.25
2018-02-25T01:32:00.654Z,988.23
2018-02-25T01:33:00.646Z,988.24
2018-02-25T01:34:00.626Z,988.21
2018-02-25T01:35:00.616Z,988.16
2018-02-25T01:36:00.783Z,988.19
2018-02-25T01:37:00.600Z,988.12
2018-02-25T01:38:00.571Z,988.14
2018-02-25T01:39:00.562Z,988.11
2018-02-25T01:40:00.613Z,988.11
2018-02-25T01:41:00.578Z,988.03
2018-02-25T01:42:00.521Z,988.06
2018-02-25T01:43:00.513Z,988.02
2018-02-25T01:44:00.501Z,988.05
2018-02-25T01:45:00.485Z,988.06
2018-02-25T01:46:00.515Z,988.06
2018-02-25T01:47:00.463Z,988.02
2018-02-25T01:48:00.446Z,988.09
2018-02-25T01:49:00.434Z,988.07
2018-02-25T01:50:00.479Z,988.05
2018-02-25T01:51:00.452Z,988.08
2018-02-25T01:52:00.394Z,988.06
2018-02-25T01:53:00.383Z,988.01
2018-02-25T01:54:00.369Z,988.02
2018-02-25T01:55:00.355Z,988.02
2018-02-25T01:56:00.383Z,988.00
2018-02-25T01:57:00.334Z,988.01
2018-02-25T01:58:00.315Z,988.00
2018-02-25T01:59:00.306Z,987.98
2018-02-25T02:00:00.290Z,987.96
2018-02-25T02:01:00.329Z,987.99
2018-02-25T02:02:00.262Z,987.96
2018-02-25T02:03:00.249Z,987.94
2018-02-25T02:04:00.240Z,987.91
2018-02-25T02:05:00.223Z,987.92
2018-02-25T02:06:00.251Z,987.91
2018-02-25T02:07:00.620Z,987.88
2018-02-25T02:08:00.186Z,987.90
2018-02-25T02:09:00.171Z,987.91
2018-02-25T02:10:00.156Z,987.91
2018-02-25T02:11:00.185Z,987.92
2018-02-25T02:12:00.133Z,987.91
2018-02-25T02:13:00.120Z,987.88
2018-02-25T02:14:00.103Z,987.95
2018-02-25T02:15:00.092Z,987.91
2018-02-25T02:16:00.117Z,987.91
2018-02-25T02:17:00.068Z,987.89
2018-02-25T02:18:00.055Z,987.86
2018-02-25T02:19:00.043Z,987.88
2018-02-25T02:20:00.029Z,987.88
2018-02-25T02:21:00.056Z,987.86
2018-02-25T02:22:00.007Z,987.86
2018-02-25T02:22:59.985Z,987.85
2018-02-25T02:23:59.977Z,987.87
2018-02-25T02:24:59.961Z,987.83
2018-02-25T02:26:00.004Z,987.87
2018-02-25T02:26:59.933Z,987.86
2018-02-25T02:27:59.930Z,987.89
2018-02-25T02:28:59.906Z,987.86
2018-02-25T02:29:59.892Z,987.86
2018-02-25T02:30:59.917Z,987.90
2018-02-25T02:31:59.905Z,987.86
2018-02-25T02:32:59.860Z,987.86
2018-02-25T02:33:59.842Z,987.85
2018-02-25T02:34:59.828Z,987.86
2018-02-25T02:35:59.819Z,987.87
2018-02-25T02:36:59.860Z,987.90
2018-02-25T02:37:59.790Z,987.93
2018-02-25T02:38:59.776Z,987.90
2018-02-25T02:39:59.810Z,987.93
2018-02-25T02:40:59.749Z,987.91
2018-02-25T02:41:59.783Z,987.89
2018-02-25T02:42:59.721Z,987.90
2018-02-25T02:43:59.710Z,987.96
2018-02-25T02:44:59.714Z,987.93
2018-02-25T02:45:59.724Z,987.97
2018-02-25T02:46:59.672Z,987.95
2018-02-25T02:47:59.667Z,987.93
2018-02-25T02:48:59.647Z,987.97
2018-02-25T02:49:59.629Z,987.98
2018-02-25T02:50:59.659Z,988.01
2018-02-25T02:51:59.618Z,988.01
2018-02-25T02:52:59.589Z,987.99
2018-02-25T02:53:59.579Z,988.01
2018-02-25T02:54:59.562Z,987.98
2018-02-25T02:55:59.592Z,988.00
2018-02-25T02:56:59.537Z,988.00
2018-02-25T02:57:59.522Z,988.00
2018-02-25T02:58:59.510Z,988.02
2018-02-25T02:59:59.502Z,987.99
2018-02-25T03:00:59.553Z,988.02
2018-02-25T03:01:59.525Z,988.02
2018-02-25T03:02:59.456Z,988.02
2018-02-25T03:03:59.443Z,988.01
2018-02-25T03:04:59.430Z,988.03
2018-02-25T03:05:59.457Z,988.03
2018-02-25T03:06:59.424Z,988.00
2018-02-25T03:07:59.414Z,988.00
2018-02-25T03:08:59.400Z,988.01
2018-02-25T03:09:59.425Z,988.00
2018-02-25T03:10:59.370Z,988.01
2018-02-25T03:11:59.357Z,988.08
2018-02-25T03:12:59.349Z,988.06
2018-02-25T03:13:59.327Z,988.00
2018-02-25T03:14:59.376Z,988.02
2018-02-25T03:15:59.814Z,988.01
2018-02-25T03:16:59.294Z,987.98
2018-02-25T03:17:59.280Z,987.98
2018-02-25T03:18:59.263Z,988.00
2018-02-25T03:19:59.252Z,988.01
2018-02-25T03:20:59.278Z,987.97
2018-02-25T03:21:59.226Z,987.98
2018-02-25T03:22:59.209Z,987.98
2018-02-25T03:23:59.197Z,987.98
2018-02-25T03:24:59.185Z,987.99
2018-02-25T03:25:59.226Z,987.98
2018-02-25T03:26:59.165Z,987.99
2018-02-25T03:27:59.148Z,988.01
2018-02-25T03:28:59.134Z,987.98
2018-02-25T03:29:59.118Z,988.01
2018-02-25T03:30:59.111Z,987.99
2018-02-25T03:31:59.134Z,987.96
2018-02-25T03:32:59.077Z,987.96
2018-02-25T03:33:59.062Z,987.90
2018-02-25T03:34:59.051Z,987.93
2018-02-25T03:35:59.036Z,987.96
2018-02-25T03:36:59.071Z,987.96
2018-02-25T03:37:59.012Z,987.96
2018-02-25T03:38:59.000Z,987.95
2018-02-25T03:39:58.985Z,987.99
2018-02-25T03:40:58.970Z,987.93
2018-02-25T03:41:58.996Z,987.95
2018-02-25T03:42:58.944Z,987.94
2018-02-25T03:43:58.931Z,987.98
2018-02-25T03:44:58.914Z,987.96
2018-02-25T03:45:58.905Z,987.91
2018-02-25T03:46:58.932Z,987.97
2018-02-25T03:47:58.878Z,987.93
2018-02-25T03:48:58.867Z,987.94
2018-02-25T03:49:58.849Z,987.96
2018-02-25T03:50:58.877Z,987.96
2018-02-25T03:51:58.820Z,987.95
2018-02-25T03:52:58.808Z,987.95
2018-02-25T03:53:58.795Z,987.97
2018-02-25T03:54:58.786Z,987.96
2018-02-25T03:55:58.809Z,987.98
2018-02-25T03:56:58.755Z,987.95
2018-02-25T03:57:58.742Z,987.94
2018-02-25T03:58:58.972Z,987.96
2018-02-25T03:59:58.714Z,987.92
2018-02-25T04:00:58.740Z,987.94
2018-02-25T04:01:58.689Z,987.93
2018-02-25T04:02:58.674Z,987.90
2018-02-25T04:03:58.661Z,987.93
2018-02-25T04:04:58.648Z,987.88
2018-02-25T04:05:58.701Z,987.90
2018-02-25T04:06:58.621Z,987.90
2018-02-25T04:07:58.607Z,987.88
2018-02-25T04:08:58.590Z,987.88
2018-02-25T04:09:58.579Z,987.87
2018-02-25T04:10:58.627Z,987.89
2018-02-25T04:11:58.589Z,987.89
2018-02-25T04:12:58.536Z,987.89
2018-02-25T04:13:58.522Z,987.89
2018-02-25T04:14:58.510Z,987.93
2018-02-25T04:15:58.641Z,987.95
2018-02-25T04:16:58.484Z,987.92
2018-02-25T04:17:58.467Z,987.97
2018-02-25T04:18:58.456Z,987.98
2018-02-25T04:19:58.440Z,988.00
2018-02-25T04:20:58.428Z,987.97
2018-02-25T04:21:58.453Z,987.99
2018-02-25T04:22:58.403Z,987.95
2018-02-25T04:23:58.386Z,987.95
2018-02-25T04:24:58.373Z,987.96
2018-02-25T04:25:58.360Z,987.97
2018-02-25T04:26:58.388Z,987.94
2018-02-25T04:27:58.374Z,988.00
2018-02-25T04:28:58.650Z,987.94
2018-02-25T04:29:58.303Z,987.94
2018-02-25T04:30:58.289Z,987.91
2018-02-25T04:31:58.319Z,987.92
2018-02-25T04:32:58.265Z,987.93
2018-02-25T04:33:58.248Z,987.91
2018-02-25T04:34:58.237Z,987.90
2018-02-25T04:35:58.226Z,987.91
2018-02-25T04:36:58.266Z,987.89
2018-02-25T04:37:58.196Z,987.92
2018-02-25T04:38:58.185Z,987.94
2018-02-25T04:39:58.168Z,987.92
2018-02-25T04:40:58.154Z,987.94
2018-02-25T04:41:58.180Z,987.91
2018-02-25T04:42:58.132Z,987.89
2018-02-25T04:43:58.115Z,987.88
2018-02-25T04:44:58.105Z,987.88
2018-02-25T04:45:58.084Z,987.86
2018-02-25T04:46:58.111Z,987.83
2018-02-25T04:47:58.059Z,987.84
2018-02-25T04:48:58.417Z,987.85
2018-02-25T04:49:58.033Z,987.82
2018-02-25T04:50:58.018Z,987.82
2018-02-25T04:51:58.045Z,987.82
2018-02-25T04:52:57.990Z,987.86
2018-02-25T04:53:57.978Z,987.85
2018-02-25T04:54:57.968Z,987.82
2018-02-25T04:55:57.950Z,987.86
2018-02-25T04:56:57.977Z,987.85
2018-02-25T04:57:57.920Z,987.82
2018-02-25T04:58:57.912Z,987.82
2018-02-25T04:59:57.896Z,987.81
2018-02-25T05:00:57.892Z,987.82
2018-02-25T05:01:57.930Z,987.84
2018-02-25T05:02:57.856Z,987.82
2018-02-25T05:03:57.849Z,987.79
2018-02-25T05:04:57.833Z,987.80
2018-02-25T05:05:57.815Z,987.81
2018-02-25T05:06:57.845Z,987.86
2018-02-25T05:07:57.788Z,987.86
2018-02-25T05:08:57.773Z,987.85
2018-02-25T05:09:57.760Z,987.85
2018-02-25T05:10:57.747Z,987.91
2018-02-25T05:11:57.778Z,987.88
2018-02-25T05:12:57.722Z,987.90
2018-02-25T05:13:57.708Z,987.91
2018-02-25T05:14:57.693Z,987.92
2018-02-25T05:15:57.681Z,987.91
2018-02-25T05:16:57.723Z,987.87
2018-02-25T05:17:57.657Z,987.90
2018-02-25T05:18:57.637Z,987.92
2018-02-25T05:19:57.624Z,987.96
2018-02-25T05:20:57.614Z,987.91
2018-02-25T05:21:57.659Z,987.95
2018-02-25T05:22:57.583Z,987.97
2018-02-25T05:23:57.568Z,987.96
2018-02-25T05:24:57.556Z,987.99
2018-02-25T05:25:57.543Z,987.99
2018-02-25T05:26:57.586Z,987.96
2018-02-25T05:27:57.520Z,987.97
2018-02-25T05:28:57.516Z,987.93
2018-02-25T05:29:57.489Z,987.99
2018-02-25T05:30:57.478Z,987.95
2018-02-25T05:31:57.497Z,987.98
2018-02-25T05:32:57.450Z,987.95
2018-02-25T05:33:57.432Z,987.96
2018-02-25T05:34:57.417Z,987.91
2018-02-25T05:35:57.408Z,987.98
2018-02-25T05:36:57.433Z,987.97
2018-02-25T05:37:57.376Z,988.00
2018-02-25T05:38:57.370Z,988.03
2018-02-25T05:39:57.348Z,988.00
2018-02-25T05:40:57.335Z,988.00
2018-02-25T05:41:57.368Z,987.95
2018-02-25T05:42:57.306Z,987.98
2018-02-25T05:43:57.292Z,988.01
2018-02-25T05:44:57.278Z,988.00
2018-02-25T05:45:57.264Z,988.01
2018-02-25T05:46:57.308Z,988.04
2018-02-25T05:47:57.636Z,987.98
2018-02-25T05:48:57.225Z,988.02
2018-02-25T05:49:57.207Z,988.04
2018-02-25T05:50:57.196Z,988.01
2018-02-25T05:51:57.226Z,988.05
2018-02-25T05:52:57.207Z,988.05
2018-02-25T05:53:57.153Z,988.03
2018-02-25T05:54:57.140Z,988.04
2018-02-25T05:55:57.126Z,988.09
2018-02-25T05:56:57.111Z,988.10
2018-02-25T05:57:57.137Z,988.15
2018-02-25T05:58:57.083Z,988.11
2018-02-25T05:59:57.069Z,988.12
2018-02-25T06:00:57.053Z,988.12
2018-02-25T06:01:57.037Z,988.12
2018-02-25T06:02:57.082Z,988.15
2018-02-25T06:03:57.012Z,988.15
2018-02-25T06:04:56.997Z,988.17
2018-02-25T06:05:56.982Z,988.20
2018-02-25T06:06:57.012Z,988.22
2018-02-25T06:07:56.995Z,988.23
2018-02-25T06:08:56.941Z,988.22
2018-02-25T06:09:56.927Z,988.23
2018-02-25T06:10:56.917Z,988.27
2018-02-25T06:11:56.898Z,988.24
2018-02-25T06:12:56.928Z,988.23
2018-02-25T06:13:56.875Z,988.24
2018-02-25T06:14:56.854Z,988.25
2018-02-25T06:15:56.967Z,988.24
2018-02-25T06:16:56.868Z,988.21
2018-02-25T06:17:56.817Z,988.24
2018-02-25T06:18:56.804Z,988.25
2018-02-25T06:19:56.789Z,988.23
2018-02-25T06:20:56.773Z,988.27
2018-02-25T06:21:56.756Z,988.28
2018-02-25T06:22:56.801Z,988.23
2018-02-25T06:23:56.730Z,988.28
2018-02-25T06:24:56.713Z,988.29
2018-02-25T06:25:56.702Z,988.29
2018-02-25T06:26:56.738Z,988.28
2018-02-25T06:27:56.669Z,988.31
2018-02-25T06:28:56.722Z,988.28
2018-02-25T06:29:56.642Z,988.28
2018-02-25T06:30:56.632Z,988.28
2018-02-25T06:31:56.677Z,988.32
2018-02-25T06:32:56.601Z,988.29
2018-02-25T06:33:56.586Z,988.27
2018-02-25T06:34:56.576Z,988.27
2018-02-25T06:35:56.561Z,988.29
2018-02-25T06:36:56.583Z,988.28
2018-02-25T06:37:56.589Z,988.29
2018-02-25T06:38:56.517Z,988.35
2018-02-25T06:39:56.504Z,988.35
2018-02-25T06:40:56.488Z,988.32
2018-02-25T06:41:56.516Z,988.32
2018-02-25T06:42:56.462Z,988.35
2018-02-25T06:43:56.445Z,988.34
2018-02-25T06:44:56.430Z,988.38
2018-02-25T06:45:56.417Z,988.37
2018-02-25T06:46:56.441Z,988.38
2018-02-25T06:47:56.393Z,988.34
2018-02-25T06:48:56.375Z,988.39
2018-02-25T06:49:56.361Z,988.39
2018-02-25T06:50:56.347Z,988.38
2018-02-25T06:51:56.376Z,988.38
2018-02-25T06:52:56.327Z,988.39
2018-02-25T06:53:56.308Z,988.45
2018-02-25T06:54:56.292Z,988.46
2018-02-25T06:55:56.276Z,988.56
2018-02-25T06:56:56.308Z,988.59
2018-02-25T06:57:56.254Z,988.59
2018-02-25T06:58:56.240Z,988.66
2018-02-25T06:59:56.232Z,988.65
2018-02-25T07:00:56.215Z,988.65
2018-02-25T07:01:56.260Z,988.65
2018-02-25T07:02:56.188Z,988.67
2018-02-25T07:03:56.173Z,988.70
2018-02-25T07:04:56.165Z,988.67
2018-02-25T07:05:56.150Z,988.63
2018-02-25T07:06:56.178Z,988.65
2018-02-25T07:07:56.175Z,988.64
2018-02-25T07:08:56.119Z,988.69
2018-02-25T07:09:56.107Z,988.71
2018-02-25T07:10:56.097Z,988.68
2018-02-25T07:11:56.086Z,988.59
2018-02-25T07:12:56.116Z,988.63
2018-02-25T07:13:56.065Z,988.67
2018-02-25T07:14:56.058Z,988.68
2018-02-25T07:15:56.047Z,988.67
2018-02-25T07:16:56.040Z,988.67
2018-02-25T07:17:56.065Z,988.72
2018-02-25T07:18:56.018Z,988.67
2018-02-25T07:19:56.008Z,988.68
2018-02-25T07:20:56.000Z,988.64
2018-02-25T07:21:55.993Z,988.65
2018-02-25T07:22:56.020Z,988.67
2018-02-25T07:23:55.972Z,988.60
2018-02-25T07:24:55.964Z,988.68
2018-02-25T07:25:55.956Z,988.70
2018-02-25T07:26:55.945Z,988.71
2018-02-25T07:27:56.000Z,988.64
2018-02-25T07:28:55.927Z,988.62
2018-02-25T07:29:55.915Z,988.64
2018-02-25T07:30:55.911Z,988.64
2018-02-25T07:31:55.934Z,988.63
2018-02-25T07:32:55.931Z,988.62
2018-02-25T07:33:55.884Z,988.66
2018-02-25T07:34:55.884Z,988.66
2018-02-25T07:35:55.862Z,988.60
2018-02-25T07:36:55.854Z,988.60
2018-02-25T07:37:55.876Z,988.66
2018-02-25T07:38:55.830Z,988.63
2018-02-25T07:39:55.824Z,988.60
2018-02-25T07:40:55.819Z,988.61
2018-02-25T07:41:55.841Z,988.61
2018-02-25T07:42:55.793Z,988.58
2018-02-25T07:43:55.781Z,988.60
2018-02-25T07:44:55.772Z,988.64
2018-02-25T07:45:55.764Z,988.61
2018-02-25T07:46:55.810Z,988.62
2018-02-25T07:47:55.740Z,988.62
2018-02-25T07:48:56.686Z,988.62
2018-02-25T07:49:55.758Z,988.64
2018-02-25T07:50:55.717Z,988.66
2018-02-25T07:51:55.749Z,988.67
2018-02-25T07:52:55.696Z,988.68
2018-02-25T07:53:55.684Z,988.64
2018-02-25T07:54:55.679Z,988.65
2018-02-25T07:55:55.713Z,988.61
2018-02-25T07:56:55.712Z,988.66
2018-02-25T07:57:55.649Z,988.61
2018-02-25T07:58:55.640Z,988.65
2018-02-25T07:59:55.633Z,988.59
2018-02-25T08:00:55.632Z,988.63
2018-02-25T08:01:55.654Z,988.63
2018-02-25T08:02:55.642Z,988.62
2018-02-25T08:03:55.593Z,988.68
2018-02-25T08:04:55.583Z,988.64
2018-02-25T08:05:55.582Z,988.65
2018-02-25T08:06:55.564Z,988.62
2018-02-25T08:07:55.602Z,988.63
2018-02-25T08:08:55.553Z,988.65
2018-02-25T08:09:55.538Z,988.63
2018-02-25T08:10:56.186Z,988.61
2018-02-25T08:11:55.526Z,988.65
2018-02-25T08:12:55.559Z,988.61
2018-02-25T08:13:55.503Z,988.59
2018-02-25T08:14:55.497Z,988.64
2018-02-25T08:15:56.183Z,988.66
2018-02-25T08:16:55.480Z,988.66
2018-02-25T08:17:55.535Z,988.65
2018-02-25T08:18:56.181Z,988.65
2018-02-25T08:19:55.450Z,988.64
2018-02-25T08:20:55.439Z,988.63
2018-02-25T08:21:55.434Z,988.64
2018-02-25T08:22:55.436Z,988.63
2018-02-25T08:23:55.455Z,988.65
2018-02-25T08:24:55.407Z,988.69
2018-02-25T08:25:55.396Z,988.66
2018-02-25T08:26:55.388Z,988.66
2018-02-25T08:27:55.384Z,988.72
2018-02-25T08:28:55.418Z,988.65
2018-02-25T08:29:55.362Z,988.73
2018-02-25T08:30:55.353Z,988.75
2018-02-25T08:31:55.341Z,988.72
2018-02-25T08:32:55.334Z,988.77
2018-02-25T08:33:55.382Z,988.73
2018-02-25T08:34:55.315Z,988.78
2018-02-25T08:35:55.308Z,988.78
2018-02-25T08:36:55.297Z,988.74
2018-02-25T08:37:55.317Z,988.74
2018-02-25T08:38:55.279Z,988.76
2018-02-25T08:39:55.312Z,988.79
2018-02-25T08:40:55.260Z,988.71
2018-02-25T08:41:55.304Z,988.75
2018-02-25T08:42:55.246Z,988.80
2018-02-25T08:43:55.237Z,988.79
2018-02-25T08:44:55.272Z,988.74
2018-02-25T08:45:55.218Z,988.82
2018-02-25T08:46:55.212Z,988.76
2018-02-25T08:47:55.209Z,988.82
2018-02-25T08:48:55.203Z,988.77
2018-02-25T08:49:55.244Z,988.75
2018-02-25T08:50:55.179Z,988.75
2018-02-25T08:51:55.212Z,988.84
2018-02-25T08:52:55.167Z,988.70
2018-02-25T08:53:55.150Z,988.71
2018-02-25T08:54:55.150Z,988.68
2018-02-25T08:55:55.188Z,988.72
2018-02-25T08:56:55.498Z,988.71
2018-02-25T08:57:55.127Z,988.71
2018-02-25T08:58:55.125Z,988.65
2018-02-25T08:59:55.107Z,988.69
2018-02-25T09:00:55.148Z,988.67
2018-02-25T09:01:55.094Z,989.08
2018-02-25T09:02:55.086Z,988.86
2018-02-25T09:03:55.081Z,988.70
2018-02-25T09:04:55.077Z,989.12
2018-02-25T09:05:55.125Z,988.80
2018-02-25T09:06:55.060Z,988.88
2018-02-25T09:07:55.052Z,988.82
2018-02-25T09:08:55.046Z,988.76
2018-02-25T09:09:55.039Z,988.85
2018-02-25T09:10:55.077Z,988.86
2018-02-25T09:11:55.071Z,988.80
2018-02-25T09:12:55.024Z,988.70
2018-02-25T09:13:55.017Z,988.76
2018-02-25T09:14:55.016Z,989.15
2018-02-25T09:15:55.007Z,988.96
2018-02-25T09:16:55.043Z,989.04
2018-02-25T09:17:55.005Z,989.13
2018-02-25T09:18:55.021Z,988.84
2018-02-25T09:19:55.011Z,988.77
2018-02-25T09:20:55.003Z,988.72
2018-02-25T09:21:55.026Z,988.65
2018-02-25T09:22:54.992Z,988.66
2018-02-25T09:23:54.983Z,988.64
2018-02-25T09:24:54.983Z,988.72
2018-02-25T09:25:54.994Z,988.66
2018-02-25T09:26:55.012Z,988.61
2018-02-25T09:27:54.969Z,988.87
2018-02-25T09:28:55.141Z,989.04
2018-02-25T09:29:55.687Z,988.93
2018-02-25T09:30:54.955Z,988.69
2018-02-25T09:31:55.018Z,988.64
2018-02-25T09:32:54.955Z,988.59
2018-02-25T09:33:54.956Z,988.57
2018-02-25T09:34:54.965Z,988.62
2018-02-25T09:35:54.986Z,988.73
2018-02-25T09:36:54.950Z,988.97
2018-02-25T09:37:54.970Z,988.85
2018-02-25T09:38:54.936Z,988.52
2018-02-25T09:39:54.932Z,988.52
2018-02-25T09:40:54.912Z,988.96
2018-02-25T09:41:54.922Z,988.94
2018-02-25T09:42:54.963Z,988.92
2018-02-25T09:43:54.914Z,988.91
2018-02-25T09:44:54.933Z,988.89
2018-02-25T09:45:54.922Z,988.88
2018-02-25T09:46:54.904Z,988.91
2018-02-25T09:47:54.962Z,988.79
2018-02-25T09:48:54.905Z,988.84
2018-02-25T09:49:54.890Z,988.84
2018-02-25T09:50:54.931Z,988.84
2018-02-25T09:51:54.892Z,988.82
2018-02-25T09:52:54.935Z,988.82
2018-02-25T09:53:55.132Z,988.82
2018-02-25T09:54:54.897Z,988.79
2018-02-25T09:55:54.900Z,988.74
2018-02-25T09:56:54.903Z,988.39
2018-02-25T09:57:54.957Z,988.77
2018-02-25T09:58:54.904Z,988.80
2018-02-25T09:59:54.910Z,988.76
2018-02-25T10:00:54.912Z,988.80
2018-02-25T10:01:54.905Z,988.75
2018-02-25T10:02:54.972Z,988.76
2018-02-25T10:03:54.912Z,988.72
2018-02-25T10:04:54.912Z,988.80
2018-02-25T10:05:55.686Z,988.78
2018-02-25T10:06:54.931Z,988.76
2018-02-25T10:07:54.980Z,988.76
2018-02-25T10:08:54.959Z,988.76
2018-02-25T10:09:54.925Z,988.78
2018-02-25T10:10:54.930Z,988.82
2018-02-25T10:11:54.935Z,988.73
2018-02-25T10:12:54.949Z,988.75
2018-02-25T10:13:54.985Z,988.72
2018-02-25T10:14:55.841Z,988.74
2018-02-25T10:15:54.952Z,988.72
2018-02-25T10:16:54.960Z,988.70
2018-02-25T10:17:54.952Z,988.69
2018-02-25T10:18:55.010Z,988.70
2018-02-25T10:19:54.964Z,988.72
2018-02-25T10:20:54.982Z,988.67
2018-02-25T10:21:54.968Z,988.69
2018-02-25T10:22:55.682Z,988.64
2018-02-25T10:23:54.975Z,988.59
2018-02-25T10:24:55.021Z,988.65
2018-02-25T10:25:54.977Z,988.63
2018-02-25T10:26:54.981Z,988.65
2018-02-25T10:27:54.989Z,988.62
2018-02-25T10:28:54.992Z,988.61
2018-02-25T10:29:55.058Z,988.58
2018-02-25T10:30:55.042Z,988.60
2018-02-25T10:31:55.005Z,988.61
2018-02-25T10:32:55.012Z,988.61
2018-02-25T10:33:55.295Z,988.61
2018-02-25T10:34:55.056Z,988.56
2018-02-25T10:35:55.019Z,988.51
2018-02-25T10:36:55.024Z,988.53
2018-02-25T10:37:55.028Z,988.52
2018-02-25T10:38:55.036Z,988.47
2018-02-25T10:39:55.094Z,988.46
2018-02-25T10:40:55.085Z,988.54
2018-02-25T10:41:55.049Z,988.45
2018-02-25T10:42:55.067Z,988.53
2018-02-25T10:43:55.054Z,988.40
2018-02-25T10:44:55.065Z,988.46
2018-02-25T10:45:55.116Z,988.44
2018-02-25T10:46:55.075Z,988.36
2018-02-25T10:47:55.076Z,988.38
2018-02-25T10:48:55.085Z,988.38
2018-02-25T10:49:55.082Z,988.30
2018-02-25T10:50:55.139Z,988.35
2018-02-25T10:51:55.091Z,988.35
2018-02-25T10:52:55.101Z,988.31
2018-02-25T10:53:55.102Z,988.34
2018-02-25T10:54:55.688Z,988.28
2018-02-25T10:55:55.109Z,988.31
2018-02-25T10:56:55.173Z,988.26
2018-02-25T10:57:55.117Z,988.28
2018-02-25T10:58:55.132Z,988.29
2018-02-25T10:59:55.126Z,988.29
2018-02-25T11:00:55.176Z,988.28
2018-02-25T11:01:55.138Z,988.21
2018-02-25T11:02:55.141Z,988.28
2018-02-25T11:03:55.148Z,988.25
2018-02-25T11:04:55.164Z,988.20
2018-02-25T11:05:55.197Z,988.18
2018-02-25T11:06:55.160Z,988.25
2018-02-25T11:07:55.693Z,988.21
2018-02-25T11:08:55.171Z,988.19
2018-02-25T11:09:55.691Z,988.18
2018-02-25T11:10:55.226Z,988.17
2018-02-25T11:11:55.183Z,988.18
2018-02-25T11:12:55.189Z,988.16
2018-02-25T11:13:55.194Z,988.08
2018-02-25T11:14:55.200Z,988.14
2018-02-25T11:15:55.267Z,988.04
2018-02-25T11:16:55.206Z,988.09
2018-02-25T11:17:55.670Z,988.07
2018-02-25T11:18:55.218Z,988.07
2018-02-25T11:19:55.224Z,988.07
2018-02-25T11:20:55.229Z,988.04
2018-02-25T11:21:55.282Z,987.98
2018-02-25T11:22:55.240Z,987.96
2018-02-25T11:23:55.246Z,987.96
2018-02-25T11:24:55.252Z,987.84
2018-02-25T11:25:55.256Z,987.91
2018-02-25T11:26:55.318Z,987.89
2018-02-25T11:27:55.263Z,987.90
2018-02-25T11:28:55.270Z,987.87
2018-02-25T11:29:55.444Z,987.87
2018-02-25T11:30:55.281Z,987.90
2018-02-25T11:31:55.286Z,987.83
2018-02-25T11:32:55.326Z,987.81
2018-02-25T11:33:55.292Z,987.81
2018-02-25T11:34:55.302Z,987.82
2018-02-25T11:35:55.305Z,987.81
2018-02-25T11:36:55.354Z,987.76
2018-02-25T11:37:55.316Z,987.83
2018-02-25T11:38:55.363Z,987.80
2018-02-25T11:39:55.328Z,987.83
2018-02-25T11:40:56.197Z,987.85
2018-02-25T11:41:55.382Z,987.77
2018-02-25T11:42:55.344Z,987.78
2018-02-25T11:43:55.351Z,987.73
2018-02-25T11:44:56.209Z,987.76
2018-02-25T11:45:55.363Z,987.79
2018-02-25T11:46:55.426Z,987.78
2018-02-25T11:47:55.376Z,987.70
2018-02-25T11:48:55.423Z,987.76
2018-02-25T11:49:55.389Z,987.75
2018-02-25T11:50:55.390Z,987.77
2018-02-25T11:51:55.457Z,987.81
2018-02-25T11:52:55.402Z,987.78
2018-02-25T11:53:55.452Z,987.77
2018-02-25T11:54:56.205Z,987.81
2018-02-25T11:55:55.419Z,987.78
2018-02-25T11:56:55.785Z,987.75
2018-02-25T11:57:55.471Z,987.75
2018-02-25T11:58:55.436Z,987.72
2018-02-25T11:59:55.438Z,987.71
2018-02-25T12:00:55.448Z,987.68
2018-02-25T12:01:55.489Z,987.71
2018-02-25T12:02:55.459Z,987.74
2018-02-25T12:03:55.463Z,987.74
2018-02-25T12:04:55.466Z,987.69
2018-02-25T12:05:55.470Z,987.76
2018-02-25T12:06:55.521Z,987.77
2018-02-25T12:07:55.486Z,987.68
2018-02-25T12:08:55.489Z,987.69
2018-02-25T12:09:55.494Z,987.67
2018-02-25T12:10:55.501Z,987.69
2018-02-25T12:11:55.566Z,987.67
2018-02-25T12:12:55.511Z,987.73
2018-02-25T12:13:55.516Z,987.71
2018-02-25T12:14:59.278Z,987.72
2018-02-25T12:15:55.530Z,987.70
2018-02-25T12:16:55.532Z,987.76
2018-02-25T12:17:55.583Z,987.65
2018-02-25T12:18:55.546Z,987.70
2018-02-25T12:19:55.555Z,987.69
2018-02-25T12:20:55.553Z,987.66
2018-02-25T12:21:55.618Z,987.63
2018-02-25T12:22:56.127Z,987.59
2018-02-25T12:23:55.571Z,987.63
2018-02-25T12:24:55.620Z,987.63
2018-02-25T12:25:55.583Z,987.63
2018-02-25T12:26:55.586Z,987.64
2018-02-25T12:27:55.651Z,987.62